Time;durP1;ratioP1;P1;durP2;ratioP2;P2;SDS_P1;SDS_P2;PMS_P1;PMS_P2;Temp;Humidity;BMP_temperature;BMP_pressure;BME280_temperature;BME280_humidity;BME280_pressure;Samples;Min_cycle;Max_cycle;Signal;HPM_P1;HPM_P2
2022/04/19 00:00:56;;;;;;;4.97;3.20;;;8.30;54.90;;;6.96;52.67;95692.47;4899683;28;20352;-61
2022/04/19 00:03:22;;;;;;;6.78;3.15;;;8.30;54.60;;;6.93;53.10;95692.81;4885980;28;20701;-61
2022/04/19 00:05:48;;;;;;;5.40;3.03;;;8.20;54.50;;;6.92;53.74;95696.41;4849158;28;20294;-61
2022/04/19 00:08:16;;;;;;;7.00;3.95;;;8.30;54.50;;;6.89;54.14;95696.78;4880152;28;20216;-61
2022/04/19 00:10:42;;;;;;;6.75;3.55;;;8.30;55.10;;;6.87;54.10;95693.53;4879489;28;20427;-61
2022/04/19 00:13:10;;;;;;;5.97;3.70;;;8.20;55.20;;;6.84;54.41;95689.47;4870485;28;20658;-61
2022/04/19 00:15:38;;;;;;;6.20;3.58;;;8.20;55.30;;;6.79;53.55;95685.72;4878330;28;20367;-60
2022/04/19 00:18:05;;;;;;;5.05;3.20;;;8.20;55.10;;;6.76;53.62;95679.88;4889400;28;20377;-60
2022/04/19 00:20:33;;;;;;;5.50;3.40;;;8.10;55.00;;;6.73;54.48;95680.22;4867044;28;20362;-61
2022/04/19 00:22:59;;;;;;;4.68;3.30;;;8.10;54.80;;;6.73;53.76;95661.13;4864981;28;20501;-61
2022/04/19 00:25:25;;;;;;;5.35;3.45;;;8.10;55.40;;;6.69;54.37;95660.66;4872421;28;20410;-60
2022/04/19 00:27:51;;;;;;;5.82;2.70;;;8.10;54.90;;;6.65;54.09;95659.38;4880654;28;20661;-60
2022/04/19 00:30:17;;;;;;;4.85;2.63;;;8.00;54.70;;;6.61;54.25;95657.31;4882995;28;20351;-63
2022/04/19 00:32:43;;;;;;;4.45;2.60;;;7.90;54.50;;;6.55;53.19;95650.16;4906278;28;20371;-63
2022/04/19 00:35:10;;;;;;;4.95;2.80;;;7.80;54.70;;;6.52;53.93;95653.94;4889613;28;20485;-63
2022/04/19 00:37:37;;;;;;;7.32;2.78;;;7.90;55.40;;;6.50;54.11;95645.44;4886815;28;20319;-63
2022/04/19 00:40:05;;;;;;;5.65;3.17;;;7.80;56.20;;;6.48;54.21;95647.44;4859213;28;20341;-63
2022/04/19 00:42:31;;;;;;;3.97;2.83;;;7.80;56.10;;;6.47;54.22;95635.34;4859028;28;20643;-61
2022/04/19 00:45:04;;;;;;;3.40;2.30;;;7.90;56.00;;;6.47;56.55;95640.56;4896723;28;20541;-61
2022/04/19 00:47:32;;;;;;;5.20;3.22;;;7.80;56.10;;;6.45;55.48;95637.34;4849115;28;20344;-62
2022/04/19 00:50:01;;;;;;;4.28;2.80;;;7.80;56.50;;;6.42;54.82;95633.28;4863958;28;20356;-61
2022/04/19 00:52:29;;;;;;;6.28;2.83;;;7.80;56.40;;;6.41;55.13;95636.06;4898343;28;20549;-61
2022/04/19 00:54:55;;;;;;;3.95;2.65;;;7.80;56.60;;;6.39;55.58;95635.41;4867447;28;20574;-61
2022/04/19 00:57:22;;;;;;;11.82;3.30;;;7.80;56.70;;;6.36;55.86;95620.91;4884648;28;20426;-61
2022/04/19 00:59:48;;;;;;;4.13;2.63;;;7.80;56.40;;;6.36;55.39;95625.31;4877343;28;20310;-61
2022/04/19 01:02:14;;;;;;;5.63;2.88;;;7.80;56.30;;;6.34;55.06;95622.06;4875677;28;20549;-61
2022/04/19 01:04:40;;;;;;;4.10;2.60;;;7.70;56.50;;;6.31;55.58;95619.78;4856855;28;20512;-61
2022/04/19 01:07:06;;;;;;;5.25;2.85;;;7.70;56.20;;;6.30;55.29;95612.94;4871961;28;20551;-61
2022/04/19 01:09:32;;;;;;;7.20;3.05;;;7.70;56.50;;;6.29;55.03;95613.94;4856253;28;20477;-61
2022/04/19 01:14:45;;;;;;;4.07;2.50;;;7.70;56.70;;;6.23;56.12;95610.22;4895584;28;20510;-60
2022/04/19 01:17:11;;;;;;;5.00;2.80;;;7.60;56.50;;;6.22;55.10;95605.19;4885163;28;20325;-60
2022/04/19 01:19:38;;;;;;;5.55;2.70;;;7.60;56.50;;;6.19;56.21;95598.50;4884428;28;20473;-60
2022/04/19 01:22:06;;;;;;;6.20;2.90;;;7.60;57.10;;;6.16;55.60;95595.44;4843798;28;20344;-60
2022/04/19 01:24:36;;;;;;;5.03;2.67;;;7.60;57.10;;;6.17;55.41;95604.88;4904291;28;20600;-61
2022/04/19 01:27:03;;;;;;;3.88;2.58;;;7.50;57.30;;;6.14;55.81;95604.25;4882128;28;20351;-61
2022/04/19 01:29:30;;;;;;;4.35;2.55;;;7.60;57.20;;;6.13;56.23;95600.03;4857389;28;20422;-61
2022/04/19 01:31:56;;;;;;;6.80;2.90;;;7.60;57.40;;;6.12;55.52;95595.78;4884479;28;20312;-61
2022/04/19 01:34:22;;;;;;;6.13;2.80;;;7.50;57.30;;;6.09;56.61;95588.28;4852136;28;20355;-61
2022/04/19 01:36:48;;;;;;;6.00;3.15;;;7.50;57.30;;;6.08;56.94;95589.25;4878329;28;20415;-61
2022/04/19 01:39:14;;;;;;;4.88;2.85;;;7.60;57.50;;;6.06;56.67;95586.00;4860556;28;20573;-61
2022/04/19 01:41:40;;;;;;;4.40;2.83;;;7.60;57.50;;;6.06;57.06;95583.41;4899896;28;20324;-61
2022/04/19 01:44:07;;;;;;;3.92;2.55;;;7.60;57.50;;;6.07;56.93;95587.63;4895857;28;20351;-61
2022/04/19 01:46:33;;;;;;;4.85;3.20;;;7.50;57.80;;;6.07;57.20;95585.03;4866458;28;20454;-60
2022/04/19 01:49:06;;;;;;;5.93;2.72;;;7.60;57.80;;;6.07;57.99;95582.41;4891366;28;20201;-61
2022/04/19 01:51:32;;;;;;;5.60;3.00;;;7.60;58.20;;;6.04;57.40;95580.16;4877291;28;20293;-61
2022/04/19 01:53:58;;;;;;;4.72;2.83;;;7.60;58.30;;;6.03;56.75;95588.16;4868968;28;20402;-61
2022/04/19 01:56:24;;;;;;;4.28;2.67;;;7.60;58.40;;;6.00;58.04;95578.88;4879679;28;20840;-61
2022/04/19 01:58:50;;;;;;;6.60;2.88;;;7.50;58.60;;;5.98;56.99;95586.06;4881432;28;20934;-60
2022/04/19 02:01:16;;;;;;;3.20;2.38;;;7.50;58.70;;;5.97;57.82;95587.06;4880038;28;20371;-60
2022/04/19 02:03:42;;;;;;;3.88;2.47;;;7.50;58.50;;;5.95;58.28;95578.59;4878581;28;20332;-61
2022/04/19 02:06:10;;;;;;;5.85;3.13;;;7.50;58.60;;;5.94;57.94;95582.19;4882367;28;20318;-60
2022/04/19 02:08:37;;;;;;;4.47;2.67;;;7.40;58.60;;;5.94;57.60;95576.16;4882168;28;20493;-60
2022/04/19 02:11:03;;;;;;;4.75;2.75;;;7.40;58.70;;;5.93;58.56;95579.75;4886984;28;20269;-61
2022/04/19 02:13:31;;;;;;;4.13;2.45;;;7.50;58.90;;;5.92;57.44;95575.53;4872550;28;20566;-61
2022/04/19 02:16:00;;;;;;;5.05;3.25;;;7.40;59.00;;;5.89;58.59;95579.25;4867842;28;20785;-60
2022/04/19 02:18:26;;;;;;;6.13;2.60;;;7.40;58.90;;;5.86;58.79;95579.56;4870505;28;20390;-61
2022/04/19 02:20:52;;;;;;;58.60;37.65;;;7.40;59.00;;;5.83;57.91;95570.28;4885072;28;20331;-61
2022/04/19 02:23:18;;;;;;;25.88;15.55;;;7.40;59.50;;;5.81;59.35;95571.47;4869619;28;20355;-61
2022/04/19 02:25:46;;;;;;;8.43;5.78;;;7.40;59.80;;;5.80;58.41;95575.06;4857450;28;20414;-62
2022/04/19 02:28:13;;;;;;;5.03;3.38;;;7.30;59.90;;;5.79;59.29;95568.22;4865046;28;20470;-60
2022/04/19 02:30:39;;;;;;;6.35;3.13;;;7.30;59.40;;;5.77;59.30;95573.59;4893564;28;20640;-61
2022/04/19 02:33:05;;;;;;;3.95;2.80;;;7.30;59.50;;;5.75;59.62;95572.16;4862065;28;20664;-60
2022/04/19 02:35:31;;;;;;;9.35;5.55;;;7.30;60.10;;;5.73;59.69;95568.91;4895947;28;20761;-61
2022/04/19 02:37:58;;;;;;;8.27;5.88;;;7.20;60.40;;;5.72;59.25;95572.50;4866688;28;20778;-63
2022/04/19 02:40:25;;;;;;;16.45;8.90;;;7.20;60.40;;;5.72;59.85;95567.28;4898605;28;21011;-63
2022/04/19 02:42:53;;;;;;;8.05;4.57;;;7.20;60.00;;;5.69;59.39;95563.22;4867897;28;20465;-63
2022/04/19 02:45:22;;;;;;;6.85;4.57;;;7.20;59.70;;;5.69;58.79;95562.41;4875147;28;20360;-63
2022/04/19 02:47:51;;;;;;;10.90;6.72;;;7.20;60.20;;;5.67;59.34;95553.94;4885923;28;20332;-60
2022/04/19 02:50:17;;;;;;;17.10;9.80;;;7.20;60.30;;;5.66;59.83;95552.28;4869400;28;20569;-60
2022/04/19 02:52:44;;;;;;;11.20;6.80;;;7.20;60.40;;;5.66;59.22;95552.28;4883370;28;20699;-61
2022/04/19 02:55:10;;;;;;;7.65;4.85;;;7.20;60.70;;;5.64;60.58;95549.03;4869577;28;20288;-60
2022/04/19 02:57:36;;;;;;;8.93;5.13;;;7.20;61.00;;;5.64;59.64;95549.03;4851748;28;20344;-61
2022/04/19 03:00:03;;;;;;;10.20;7.50;;;7.20;61.00;;;5.63;60.09;95557.84;4881032;28;20335;-61
2022/04/19 03:02:29;;;;;;;11.55;7.68;;;7.10;61.50;;;5.58;60.27;95550.56;4891616;28;20351;-60
2022/04/19 03:04:55;;;;;;;13.90;8.32;;;7.10;61.80;;;5.56;60.23;95556.94;4880475;28;20478;-60
2022/04/19 03:07:22;;;;;;;10.40;7.43;;;7.10;62.20;;;5.56;61.47;95554.31;4880832;28;20349;-60
2022/04/19 03:09:47;;;;;;;11.35;7.05;;;7.10;62.30;;;5.54;60.69;95560.53;4907745;28;20325;-60
2022/04/19 03:12:15;;;;;;;7.80;5.70;;;7.10;62.20;;;5.50;61.57;95564.47;4909081;28;20377;-60
2022/04/19 03:14:41;;;;;;;9.55;5.90;;;7.10;62.30;;;5.51;61.66;95560.88;4880624;28;20451;-61
2022/04/19 03:17:07;;;;;;;10.10;7.15;;;7.10;61.90;;;5.51;61.62;95560.88;4854253;28;20364;-61
2022/04/19 03:19:34;;;;;;;6.57;4.32;;;7.10;62.10;;;5.50;60.99;95561.03;4849523;28;20412;-61
2022/04/19 03:21:59;;;;;;;6.70;3.30;;;7.10;61.70;;;5.46;61.26;95559.75;4919106;28;20858;-60
2022/04/19 03:27:41;;;;;;;5.18;3.08;;;7.00;61.90;;;5.43;61.01;95558.31;4875533;28;20757;-61
2022/04/19 03:30:14;;;;;;;8.35;4.28;;;7.10;61.60;;;5.39;61.67;95562.22;4876441;28;20347;-60
2022/04/19 03:32:44;;;;;;;7.95;4.70;;;7.00;61.90;;;5.39;62.50;95559.59;4875858;28;20398;-61
2022/04/19 03:35:11;;;;;;;8.43;5.45;;;7.00;62.10;;;5.39;61.45;95558.78;4886514;28;20592;-61
2022/04/19 03:37:41;;;;;;;11.60;6.30;;;7.00;62.10;;;5.39;61.47;95557.00;4881448;28;20307;-60
2022/04/19 03:40:08;;;;;;;7.35;4.63;;;7.00;61.60;;;5.38;61.36;95555.38;4878271;28;20433;-60
2022/04/19 03:42:34;;;;;;;9.13;4.00;;;7.00;61.30;;;5.36;60.82;95559.13;4864421;28;20590;-63
2022/04/19 03:45:00;;;;;;;4.75;3.40;;;6.90;61.20;;;5.34;60.87;95556.69;4848208;28;20332;-63
2022/04/19 03:47:26;;;;;;;3.70;2.83;;;6.90;61.70;;;5.33;61.91;95557.69;4855619;28;20417;-63
2022/04/19 03:49:52;;;;;;;5.03;3.28;;;6.90;62.00;;;5.31;61.96;95559.66;4867043;28;20822;-63
2022/04/19 03:52:18;;;;;;;4.50;3.10;;;6.90;62.20;;;5.29;62.23;95553.78;4860887;28;20034;-63
2022/04/19 03:54:44;;;;;;;7.43;3.38;;;6.90;62.30;;;5.28;61.86;95549.56;4888989;28;20561;-63
2022/04/19 03:57:11;;;;;;;6.72;3.17;;;6.90;62.40;;;5.27;62.42;95558.38;4867307;28;20325;-60
2022/04/19 03:59:38;;;;;;;3.85;2.60;;;6.80;62.50;;;5.24;62.61;95558.72;4886671;28;20928;-63
2022/04/19 04:02:05;;;;;;;5.47;3.15;;;6.80;62.40;;;5.22;62.34;95556.28;4885574;28;20787;-61
2022/04/19 04:04:32;;;;;;;7.97;3.30;;;6.80;62.60;;;5.18;61.86;95554.16;4881674;28;20454;-61
2022/04/19 04:06:58;;;;;;;5.50;2.70;;;6.80;62.50;;;5.15;62.23;95551.88;4865551;28;20603;-61
2022/04/19 04:09:32;;;;;;;4.75;2.70;;;6.80;62.00;;;5.12;63.43;95549.63;4869607;28;20396;-61
2022/04/19 04:12:09;;;;;;;3.95;2.75;;;6.70;62.30;;;5.11;63.83;95553.22;4870845;28;20318;-62
2022/04/19 04:14:40;;;;;;;6.03;3.05;;;6.70;62.30;;;5.08;62.58;95553.56;4850728;28;20390;-61
2022/04/19 04:17:06;;;;;;;4.03;2.60;;;6.60;62.20;;;5.05;61.86;95553.88;4890470;28;20366;-61
2022/04/19 04:19:32;;;;;;;5.82;3.13;;;6.60;62.10;;;5.00;62.34;95557.00;4880513;28;20336;-63
2022/04/19 04:21:58;;;;;;;6.03;3.10;;;6.50;62.30;;;4.97;62.65;95557.31;4888051;28;20379;-65
2022/04/19 04:24:24;;;;;;;6.70;3.00;;;6.60;62.40;;;4.93;62.52;95562.06;4883775;28;20429;-66
2022/04/19 04:26:50;;;;;;;4.43;3.10;;;6.50;62.50;;;4.92;62.79;95565.63;4848991;28;20185;-66
2022/04/19 04:29:16;;;;;;;6.07;3.65;;;6.50;62.70;;;4.90;62.47;95567.59;4888334;28;20410;-65
2022/04/19 04:31:42;;;;;;;6.88;3.72;;;6.50;63.00;;;4.86;62.69;95571.53;4877906;28;20901;-65
2022/04/19 04:34:08;;;;;;;8.00;3.83;;;6.50;63.00;;;4.86;62.77;95561.09;4875590;28;20279;-63
2022/04/19 04:36:34;;;;;;;6.68;3.33;;;6.50;63.00;;;4.85;62.53;95558.66;4863131;28;20436;-61
2022/04/19 04:39:01;;;;;;;4.88;3.22;;;6.50;63.00;;;4.85;62.84;95558.66;4880404;28;20596;-61
2022/04/19 04:41:27;;;;;;;5.97;3.20;;;6.50;62.80;;;4.82;62.92;95554.59;4868311;28;20536;-62
2022/04/19 04:43:53;;;;;;;4.60;2.90;;;6.50;62.80;;;4.81;63.10;95547.78;4865280;28;20339;-61
2022/04/19 04:51:48;;;;;;;24.25;15.80;;;6.60;63.50;;;4.87;63.68;95557.50;4876320;28;20108;-61
2022/04/19 04:54:14;;;;;;;9.18;5.78;;;6.60;63.00;;;4.90;63.13;95548.53;4906536;28;20208;-61
2022/04/19 04:56:40;;;;;;;6.88;3.55;;;6.70;62.40;;;4.91;63.29;95553.59;4883860;28;20323;-61
2022/04/19 04:59:06;;;;;;;5.13;3.13;;;6.60;62.50;;;4.91;62.93;95543.16;4857839;28;20512;-61
2022/04/19 05:01:33;;;;;;;4.15;2.78;;;6.70;62.50;;;4.92;63.73;95550.00;4852967;28;20353;-62
2022/04/19 05:03:59;;;;;;;6.05;3.33;;;6.70;62.30;;;4.91;63.59;95543.16;4884436;28;20525;-61
2022/04/19 05:06:25;;;;;;;7.93;3.78;;;6.60;62.30;;;4.93;62.94;95540.38;4872120;28;20583;-61
2022/04/19 05:08:51;;;;;;;6.55;3.30;;;6.70;62.60;;;4.97;63.62;95546.06;4900921;28;20479;-61
2022/04/19 05:11:17;;;;;;;6.75;3.08;;;6.80;62.50;;;4.99;63.36;95544.94;4866871;28;20486;-61
2022/04/19 05:13:43;;;;;;;7.03;3.50;;;6.70;61.90;;;5.00;63.25;95545.78;4881746;28;20548;-61
2022/04/19 05:16:09;;;;;;;7.30;3.97;;;6.70;61.70;;;5.00;63.33;95543.16;4886060;28;20473;-62
2022/04/19 05:18:35;;;;;;;8.30;3.70;;;6.70;61.50;;;5.04;63.18;95549.66;4873181;28;20348;-61
2022/04/19 05:21:02;;;;;;;7.22;4.30;;;6.90;61.40;;;5.06;63.45;95545.91;4883491;28;20556;-61
2022/04/19 05:23:27;;;;;;;6.63;3.95;;;6.90;61.20;;;5.06;62.75;95545.09;4891118;28;20041;-63
2022/04/19 05:25:53;;;;;;;7.57;4.57;;;6.90;61.10;;;5.11;62.65;95546.19;4885309;28;20420;-65
2022/04/19 05:28:19;;;;;;;6.63;3.22;;;7.00;61.30;;;5.14;63.45;95543.25;4858274;28;20419;-65
2022/04/19 05:30:45;;;;;;;4.85;3.13;;;7.00;61.10;;;5.14;62.66;95547.66;4850829;28;20373;-64
2022/04/19 05:33:12;;;;;;;6.60;3.03;;;6.90;60.60;;;5.11;63.23;95542.78;4871709;28;20334;-65
2022/04/19 05:35:38;;;;;;;5.70;2.97;;;6.80;60.70;;;5.12;63.07;95544.41;4916855;28;20576;-67
2022/04/19 05:38:04;;;;;;;6.38;3.08;;;6.90;60.40;;;5.11;62.31;95535.78;4884241;28;20276;-66
2022/04/19 05:40:30;;;;;;;5.40;2.55;;;6.90;60.50;;;5.09;62.20;95536.94;4876244;28;20351;-68
2022/04/19 05:42:57;;;;;;;7.05;2.97;;;6.90;60.80;;;5.13;62.47;95540.81;4877576;28;20386;-63
2022/04/19 05:45:23;;;;;;;4.32;2.88;;;7.00;60.70;;;5.20;62.43;95539.16;4887117;28;20422;-64
2022/04/19 05:47:49;;;;;;;4.95;3.00;;;7.20;60.10;;;5.30;63.02;95542.38;4875662;28;20343;-63
2022/04/19 05:50:15;;;;;;;7.38;3.60;;;7.40;59.70;;;5.43;63.14;95545.28;4875361;28;20447;-65
2022/04/19 05:52:41;;;;;;;7.20;4.07;;;7.60;59.30;;;5.58;62.15;95545.34;4843993;28;20399;-64
2022/04/19 05:55:08;;;;;;;6.40;3.38;;;7.80;59.00;;;5.75;63.22;95546.06;4889071;28;20326;-64
2022/04/19 05:57:34;;;;;;;6.50;3.83;;;8.10;58.50;;;5.92;62.99;95552.03;4894126;28;20359;-64
2022/04/19 06:00:00;;;;;;;5.88;3.50;;;8.30;57.80;;;6.09;62.85;95556.94;4895031;28;20647;-66
2022/04/19 06:05:12;;;;;;;5.60;3.25;;;8.80;56.80;;;6.43;62.39;95555.72;4877854;28;20431;-64
2022/04/19 06:07:46;;;;;;;6.35;2.72;;;8.90;56.50;;;6.57;62.02;95560.16;4875292;28;20213;-65
2022/04/19 06:10:14;;;;;;;8.10;2.60;;;8.90;56.50;;;6.71;62.60;95564.59;4857305;28;20335;-62
2022/04/19 06:12:41;;;;;;;5.97;3.10;;;9.10;56.60;;;6.82;62.28;95563.38;4860164;28;20486;-61
2022/04/19 06:15:08;;;;;;;6.20;2.65;;;9.10;56.20;;;6.94;61.55;95558.50;4903211;28;20556;-61
2022/04/19 06:17:35;;;;;;;4.70;3.17;;;9.30;56.10;;;7.04;61.10;95559.06;4885730;28;20375;-62
2022/04/19 06:20:06;;;;;;;5.35;3.15;;;9.50;55.70;;;7.14;61.36;95553.53;4885344;28;20494;-68
2022/04/19 06:22:35;;;;;;;4.22;2.65;;;9.50;55.80;;;7.24;61.43;95560.13;4862090;28;20406;-65
2022/04/19 06:25:01;;;;;;;7.45;3.08;;;9.60;55.60;;;7.38;60.85;95550.63;4888314;28;20200;-66
2022/04/19 06:27:28;;;;;;;6.88;2.92;;;9.80;55.50;;;7.49;61.89;95546.75;4876635;28;20489;-66
2022/04/19 06:30:02;;;;;;;7.05;2.95;;;9.80;55.50;;;7.59;61.03;95557.72;4849306;28;20476;-65
2022/04/19 06:32:28;;;;;;;5.75;2.80;;;9.90;55.40;;;7.67;60.84;95555.00;4877421;28;20374;-65
2022/04/19 06:34:58;;;;;;;4.03;3.15;;;9.90;55.20;;;7.74;61.09;95560.34;4887497;28;20278;-66
2022/04/19 06:37:25;;;;;;;3.88;3.08;;;9.90;55.20;;;7.79;60.36;95553.53;4886842;28;20382;-65
2022/04/19 06:39:51;;;;;;;5.32;3.30;;;10.00;55.30;;;7.85;60.40;95546.75;4870505;28;20360;-65
2022/04/19 06:42:17;;;;;;;6.47;3.13;;;10.10;55.10;;;7.91;59.82;95551.22;4867493;28;20336;-64
2022/04/19 06:44:44;;;;;;;5.60;3.58;;;10.20;54.40;;;8.06;59.89;95553.81;4883870;28;20268;-66
2022/04/19 06:47:10;;;;;;;5.35;3.30;;;10.50;53.40;;;8.21;59.45;95541.47;4877758;28;20356;-65
2022/04/19 06:49:38;;;;;;;4.00;2.80;;;10.70;52.20;;;8.37;58.74;95538.59;4887544;28;20478;-66
2022/04/19 06:52:06;;;;;;;3.55;2.85;;;11.10;50.50;;;8.52;57.67;95539.34;4868167;28;20289;-66
2022/04/19 06:54:33;;;;;;;6.90;3.00;;;11.10;49.60;;;8.65;57.07;95530.78;4866925;28;20233;-65
2022/04/19 06:56:59;;;;;;;4.32;3.30;;;11.10;49.10;;;8.80;56.40;95525.41;4878980;28;20636;-65
2022/04/19 06:59:25;;;;;;;4.30;3.03;;;11.30;49.60;;;8.92;56.58;95529.13;4889785;28;20375;-67
2022/04/19 07:01:52;;;;;;;5.63;3.20;;;11.40;48.70;;;9.10;56.16;95532.09;4879485;28;20404;-65
2022/04/19 07:04:18;;;;;;;4.82;3.05;;;11.60;48.30;;;9.29;55.99;95537.63;4869563;28;20481;-65
2022/04/19 07:06:44;;;;;;;4.55;3.60;;;11.90;48.30;;;9.46;55.08;95533.66;4878339;28;20049;-64
2022/04/19 07:09:10;;;;;;;7.15;3.67;;;12.10;47.80;;;9.57;54.38;95521.78;4904785;28;20339;-65
2022/04/19 07:11:37;;;;;;;6.10;3.60;;;12.10;47.50;;;9.66;53.69;95537.16;4903170;28;20292;-66
2022/04/19 07:14:04;;;;;;;6.18;4.20;;;12.10;47.30;;;9.75;54.41;95530.75;4905410;28;20440;-64
2022/04/19 07:16:30;;;;;;;6.30;3.97;;;12.10;47.60;;;9.87;53.33;95530.97;4891889;28;20404;-63
2022/04/19 07:18:56;;;;;;;9.85;7.88;;;12.30;46.80;;;10.03;54.31;95532.44;4848913;28;20316;-63
2022/04/19 07:26:52;;;;;;;5.72;3.70;;;13.00;45.70;;;10.53;53.59;95530.28;4885131;28;20701;-67
2022/04/19 07:29:18;;;;;;;6.40;3.67;;;13.30;45.10;;;10.67;52.47;95518.75;4891883;28;20054;-64
2022/04/19 07:31:46;;;;;;;6.57;3.63;;;13.40;44.80;;;10.83;53.03;95528.03;4882460;28;20356;-66
2022/04/19 07:34:12;;;;;;;5.72;3.60;;;13.60;45.00;;;10.96;52.29;95523.56;4900900;28;20288;-66
2022/04/19 07:36:41;;;;;;;4.15;3.58;;;13.70;43.80;;;11.16;51.08;95517.47;4874352;28;20355;-64
2022/04/19 07:39:08;;;;;;;5.03;3.90;;;14.30;43.50;;;11.45;50.48;95527.50;4857185;28;20107;-64
2022/04/19 07:41:35;;;;;;;5.72;3.35;;;14.80;41.40;;;11.73;50.00;95518.47;4899992;28;20308;-63
2022/04/19 07:44:01;;;;;;;5.32;3.63;;;15.20;40.50;;;11.97;49.63;95523.03;4871198;28;20345;-66
2022/04/19 07:46:28;;;;;;;4.22;3.25;;;15.60;40.30;;;12.24;49.94;95516.59;4883063;28;20375;-66
2022/04/19 07:48:54;;;;;;;6.00;3.08;;;15.90;39.90;;;12.49;49.34;95507.91;4902388;28;20719;-67
2022/04/19 07:51:21;;;;;;;5.95;3.60;;;16.10;39.60;;;12.73;48.31;95507.09;4904625;28;20806;-66
2022/04/19 07:53:47;;;;;;;5.45;3.75;;;16.20;38.10;;;12.96;47.76;95505.66;4883836;28;20402;-66
2022/04/19 07:56:13;;;;;;;5.68;3.58;;;16.50;39.30;;;13.24;48.05;95490.16;4902823;28;20280;-66
2022/04/19 07:58:42;;;;;;;4.82;3.70;;;16.80;38.60;;;13.55;47.39;95493.66;4902287;28;20425;-66
2022/04/19 08:01:12;;;;;;;5.68;3.47;;;17.10;37.60;;;13.81;45.89;95490.69;4901421;28;20442;-66
2022/04/19 08:03:38;;;;;;;5.68;3.33;;;17.40;37.30;;;14.13;46.79;95496.53;4892228;28;20607;-68
2022/04/19 08:06:04;;;;;;;5.32;4.13;;;17.70;36.90;;;14.44;45.20;95498.13;4855790;28;20502;-67
2022/04/19 08:08:30;;;;;;;5.00;3.17;;;18.00;36.10;;;14.68;44.30;95494.47;4864151;28;20442;-66
2022/04/19 08:10:57;;;;;;;5.50;3.58;;;18.00;35.20;;;14.82;43.20;95496.91;4881301;28;20311;-66
2022/04/19 08:13:23;;;;;;;4.78;3.63;;;17.60;34.00;;;14.82;41.86;95491.63;4897412;28;20215;-65
2022/04/19 08:15:50;;;;;;;8.60;3.63;;;17.40;35.30;;;14.85;42.36;95491.97;4836409;28;20500;-67
2022/04/19 08:18:18;;;;;;;5.78;3.55;;;17.50;35.80;;;14.92;41.50;95486.53;4868131;28;20386;-63
2022/04/19 08:20:44;;;;;;;4.97;3.80;;;17.60;35.40;;;14.98;42.59;95490.94;4894783;28;20792;-63
2022/04/19 08:23:11;;;;;;;7.18;3.88;;;17.60;35.40;;;15.04;42.97;95484.72;4852138;28;20446;-64
2022/04/19 08:25:37;;;;;;;5.53;3.45;;;17.80;35.20;;;15.06;41.78;95484.47;4881115;28;20502;-64
2022/04/19 08:28:04;;;;;;;4.80;3.70;;;17.60;34.00;;;15.08;41.79;95482.41;4904782;28;20325;-63
2022/04/19 08:30:30;;;;;;;5.85;3.83;;;17.80;34.40;;;15.09;41.52;95482.16;4852965;28;20388;-63
2022/04/19 08:32:56;;;;;;;6.57;3.83;;;17.70;35.60;;;15.14;40.68;95482.28;4896648;28;20380;-64
2022/04/19 08:35:23;;;;;;;5.90;3.92;;;17.80;35.60;;;15.19;41.33;95479.75;4887712;28;20363;-64
2022/04/19 08:37:49;;;;;;;6.10;3.97;;;18.00;35.30;;;15.26;42.02;95483.06;4923495;28;20359;-63
2022/04/19 08:40:16;;;;;;;5.13;3.38;;;18.00;34.90;;;15.28;41.13;95483.66;4882461;28;20692;-63
2022/04/19 08:42:43;;;;;;;7.03;4.43;;;18.00;34.70;;;15.31;40.36;95485.81;4905903;28;20422;-64
2022/04/19 08:45:10;;;;;;;5.93;3.95;;;18.10;34.70;;;15.39;41.24;95486.50;4884859;28;20333;-63
2022/04/19 08:47:44;;;;;;;6.30;4.18;;;18.10;34.40;;;15.38;39.86;95484.88;4883188;28;20759;-63
2022/04/19 08:50:18;;;;;;;5.55;3.70;;;18.10;35.20;;;15.40;41.02;95490.78;4868076;28;20429;-63
2022/04/19 08:52:44;;;;;;;5.45;3.90;;;18.10;35.00;;;15.40;40.67;95482.84;4859419;28;20276;-63
2022/04/19 08:58:15;;;;;;;6.95;3.60;;;17.90;33.60;;;15.36;39.00;95476.38;4877586;28;20367;-64
2022/04/19 09:00:41;;;;;;;4.75;3.80;;;17.90;33.50;;;15.32;40.15;95482.13;4852236;28;20405;-67
2022/04/19 09:03:07;;;;;;;6.10;3.80;;;17.90;34.40;;;15.38;40.09;95484.88;4845656;28;20049;-67
2022/04/19 09:05:33;;;;;;;4.82;3.72;;;18.00;34.10;;;15.40;38.92;95477.53;4869954;28;20374;-69
2022/04/19 09:08:00;;;;;;;6.65;4.05;;;18.10;33.30;;;15.39;38.58;95481.19;4894004;28;20295;-68
2022/04/19 09:10:27;;;;;;;5.80;4.00;;;17.90;34.10;;;15.39;39.40;95478.53;4886721;28;20463;-68
2022/04/19 09:13:04;;;;;;;5.05;3.58;;;17.90;34.60;;;15.43;39.25;95485.00;4900926;28;20699;-67
2022/04/19 09:15:34;;;;;;;4.80;3.72;;;18.10;34.30;;;15.46;39.68;95492.50;4845299;28;20503;-66
2022/04/19 09:18:00;;;;;;;4.50;3.60;;;18.00;33.90;;;15.47;39.96;95486.94;4900476;28;20814;-68
2022/04/19 09:20:26;;;;;;;7.68;5.65;;;18.10;34.10;;;15.49;38.98;95486.72;4888493;28;20443;-69
2022/04/19 09:23:05;;;;;;;5.20;3.70;;;18.10;34.60;;;15.58;39.51;95490.59;4887300;28;20481;-69
2022/04/19 09:25:32;;;;;;;4.00;3.38;;;18.30;34.40;;;15.60;38.93;95488.56;4885406;28;20393;-68
2022/04/19 09:27:58;;;;;;;4.65;3.58;;;18.30;32.80;;;15.62;38.68;95483.84;4895557;28;20329;-65
2022/04/19 09:30:29;;;;;;;5.05;3.63;;;18.30;32.80;;;15.63;37.96;95476.69;4891740;28;20274;-64
2022/04/19 09:33:05;;;;;;;4.05;3.38;;;18.20;33.80;;;15.71;38.78;95479.78;4882768;28;20267;-66
2022/04/19 09:35:37;;;;;;;5.03;3.63;;;18.40;34.10;;;15.74;39.09;95479.28;4904720;28;20427;-65
2022/04/19 09:38:08;;;;;;;5.90;3.40;;;18.30;32.40;;;15.77;38.32;95476.16;4871682;28;20426;-67
2022/04/19 09:40:41;;;;;;;5.00;3.40;;;18.40;32.60;;;15.84;38.23;95476.84;4877161;28;20783;-66
2022/04/19 09:43:11;;;;;;;4.20;3.30;;;18.50;33.00;;;15.88;38.78;95474.53;4871842;28;20211;-67
2022/04/19 09:45:58;;;;;;;6.15;3.58;;;18.50;33.40;;;15.93;38.53;95477.25;4890445;28;20402;-66
2022/04/19 09:48:29;;;;;;;6.05;4.03;;;18.60;33.40;;;15.97;37.53;95473.09;4892575;28;20292;-67
2022/04/19 09:51:12;;;;;;;5.15;3.67;;;18.60;33.70;;;16.08;38.05;95479.41;4879580;28;20481;-66
2022/04/19 09:53:48;;;;;;;5.22;3.60;;;18.80;33.60;;;16.19;37.17;95476.69;4902141;28;20550;-64
2022/04/19 09:56:18;;;;;;;5.55;3.58;;;18.90;32.70;;;16.30;37.39;95469.72;4866426;28;20372;-68
2022/04/19 09:58:45;;;;;;;7.20;3.80;;;19.30;32.30;;;16.47;38.24;95467.03;4910357;28;20296;-65
2022/04/19 10:09:37;;;;;;;4.95;3.78;;;21.20;29.00;;;17.70;34.41;95465.09;4888134;28;20312;-65
2022/04/19 10:12:06;;;;;;;7.38;3.53;;;21.70;26.60;;;17.95;35.07;95451.25;4887225;28;20354;-64
2022/04/19 10:14:32;;;;;;;5.13;3.78;;;21.80;26.50;;;18.16;34.95;95454.94;4868992;28;20352;-65
2022/04/19 10:16:59;;;;;;;4.43;3.17;;;21.60;27.40;;;18.34;34.63;95444.72;4853006;28;20553;-64
2022/04/19 10:19:27;;;;;;;4.60;3.33;;;21.80;27.80;;;18.49;34.55;95437.91;4870600;28;20339;-66
2022/04/19 10:21:53;;;;;;;4.38;2.95;;;21.80;27.00;;;18.59;33.06;95441.44;4865028;28;20355;-67
2022/04/19 10:24:20;;;;;;;4.80;3.10;;;21.80;26.80;;;18.63;33.21;95441.78;4896160;28;20041;-67
2022/04/19 10:26:51;;;;;;;4.63;3.00;;;21.70;27.00;;;18.60;32.24;95436.94;4899517;28;20445;-67
2022/04/19 10:29:22;;;;;;;3.83;2.47;;;21.50;26.50;;;18.64;33.25;95435.38;4883305;28;20456;-65
2022/04/19 10:32:06;;;;;;;5.40;2.40;;;21.60;26.30;;;18.79;31.51;95432.84;4880774;28;20281;-64
2022/04/19 10:34:37;;;;;;;4.10;2.20;;;22.20;24.90;;;18.91;30.95;95422.78;4879444;28;20212;-67
2022/04/19 10:37:15;;;;;;;2.90;2.15;;;22.40;25.50;;;19.02;31.16;95420.19;4882202;28;20508;-67
2022/04/19 10:40:03;;;;;;;3.50;2.20;;;22.30;25.90;;;19.05;29.75;95417.81;4882767;28;20445;-63
2022/04/19 10:42:40;;;;;;;4.05;1.90;;;21.80;25.50;;;19.09;30.61;95423.41;4903441;28;20378;-62
2022/04/19 10:45:12;;;;;;;3.28;2.15;;;22.40;24.70;;;19.20;29.78;95425.06;4855976;28;20488;-64
2022/04/19 10:47:54;;;;;;;4.25;2.35;;;22.60;24.40;;;19.65;30.85;95423.66;4899907;28;20370;-65
2022/04/19 10:50:34;;;;;;;4.45;2.65;;;24.80;23.70;;;20.37;29.24;95412.06;4918144;28;20444;-64
2022/04/19 10:53:07;;;;;;;3.22;2.47;;;26.30;22.10;;;21.18;29.22;95405.81;4889543;28;20686;-63
2022/04/19 10:55:35;;;;;;;2.80;1.98;;;27.50;21.60;;;21.95;30.38;95405.22;4903060;28;20422;-63
2022/04/19 10:58:09;;;;;;;3.40;2.95;;;28.30;20.70;;;22.44;28.28;95406.25;4868318;28;20810;-61
2022/04/19 11:00:41;;;;;;;4.10;3.20;;;27.80;20.00;;;22.74;28.70;95394.47;4905033;28;20193;-63